METAR / TAF

Die METAR- und TAF-Liste ist aus technischen Gründen (Verfügbarkeit, Update-Zyklen) nicht für ein Meteo-Briefing gedacht. Benutzen Sie stattdessen skybriefing der Skyguide  oder das TAMSI (MeteoSchweiz-eigene Meteo Selfbriefing-Plattform für Firmen aus der Aviatik; Anfragen über das

Kontaktformular

METAR Schweiz

METAR     LSZH 140520Z 25016KT 9999 FEW018 BKN040 06/02 Q0993 NOSIG=
METAR     LSZH 140550Z 25022G33KT 220V280 9999 FEW018 BKN042 06/03
               Q0994 NOSIG=
METAR     LSGG 140520Z 24005KT 9999 -SHRA FEW010 SCT020 BKN050
               05/04 Q1001 RESHRA NOSIG=
METAR     LSGG 140550Z 22009KT 8000 SHRA FEW010 SCT020 BKN050 07/05
               Q1001 NOSIG=
METAR     LFSB 140600Z 25025G41KT 9999 SCT026 BKN030 BKN040 11/07
               Q0994 TEMPO 25030G50KT=
METAR     LSZB 140520Z VRB15KT 9999 FEW033 BKN038 BKN042 10/04
               Q0996 NOSIG=
METAR     LSZB 140550Z 23007KT 160V280 9999 -RA SCT033 BKN041 10/04
               Q0996 NOSIG=
METAR     LSZA 140520Z AUTO VRB02KT 9999 FEW090 SCT100 02/00 Q0999=
METAR     LSZA 140550Z AUTO VRB03KT 9999 FEW095 01/M01 Q0999=
METAR     LSZG 140520Z AUTO 24021KT 9999 -RA FEW010 SCT042 BKN048
               05/04 Q0996 REDZ=
METAR     LSZG 140550Z AUTO 24024G34KT 6000 -RA FEW039 SCT050 06/05
               Q0996 REDZ=
METAR     LSZR 140520Z AUTO 23010KT 180V280 9999 BKN047 SCT055
               09/03 Q0993=
METAR     LSZR 140550Z AUTO 24012G23KT 170V280 9999 -RA SCT042
               SCT050 BKN060 10/04 Q0993=
METAR     LSGS 140520Z AUTO VRB02KT 9999 -RASN BKN/// 02/02 Q1000=
METAR     LSGS 140550Z AUTO VRB02KT 9999 -RASN BKN/// 01/01 Q1000=
METAR     LSGC 140520Z AUTO 24014G29KT 170V270 5000 RA BKN010
               BKN012 BKN014 04/03 Q0996=
METAR     LSGC 140550Z 24015G28KT 210V270 9999 -RA BKN006 BKN008
               04/04 Q0997 SNOCLO=
METAR     LSZC 140520Z AUTO 05007KT 020V080 9999 SCT050 BKN060
               04/02 Q0995 REDZ=
METAR     LSZC 140550Z AUTO 05008KT 9999 BKN050 SCT060 05/02 Q0995=
METAR RRA LSZL 140520Z AUTO 10005KT 9999NDV FEW066 SCT081 03/M02
               Q0999 RMK=
METAR RRA LSZL 140550Z AUTO 07005KT 040V110 9999NDV FEW087 03/M01
               Q1000 RMK=
METAR     LSZS 140520Z AUTO VRB02KT 7000 -SN OVC060 M07/M08 Q0996=
METAR     LSZS 140550Z AUTO 24003KT 9999 -SN OVC050 M07/M08 Q0997=
METAR RRA LSMA 140520Z AUTO VRB02KT 9999NDV -SHRA FEW020 BKN052
               BKN086 04/01 Q0995 RMK=
METAR RRA LSMA 140550Z AUTO 19023G45KT 160V230 9999NDV -SHRA FEW045
               BKN055 11/04 Q0995 RMK=
METAR RRA LSMD 140520Z AUTO 23012G23KT 190V280 9999NDV -SHRA FEW029
               BKN050 BKN066 07/02 Q0994 RMK=
METAR RRA LSMD 140550Z AUTO 24016G30KT 200V280 9999NDV FEW027
               BKN039 BKN051 08/03 Q0994 RMK=
METAR RRA LSME 140520Z AUTO 16003KT 120V210 9999NDV -SHRA BKN042
               BKN079 04/02 Q0995 RMK=
METAR RRA LSME 140550Z AUTO VRB15G25KT 9999NDV OVC046 11/04 Q0995
               RMK=
METAR RRA LSMM 140520Z AUTO 08003KT 350V150 9999NDV -RA FEW017
               BKN039 OVC081 02/01 Q0997 RMK=
METAR RRA LSMM 140550Z AUTO VRB02KT 9999NDV -RA FEW016 BKN047
               OVC080 01/00 Q0997 RMK=
METAR     LSMP 140520Z 23013KT 200V260 9999 -SHRA OVC034 07/04
               Q0997 RMK BLU=
METAR     LSMP 140550Z 23009KT 200V270 9999 -SHRA BKN031 OVC035
               07/05 Q0998 RMK BLU=
Aktualisiert am Samstag, 14. Dezember 2019, 07:15 Uhr

TAF Schweiz

TAF     LSZH 140225Z 1403/1509 24010KT 9999 FEW020 SCT050
             TX09/1414Z TN03/1405Z TN06/1506Z TEMPO 1403/1411 SHRA
             TEMPO 1403/1414 25012G25KT TEMPO 1406/1411 25020G35KT
             PROB40 TEMPO 1413/1419 CAVOK BECMG 1418/1421 21007KT
             PROB30 1500/1505 RA=
TAF     LSGG 140225Z 1403/1509 23010KT 9999 FEW020 BKN030
             TX10/1413Z TN04/1403Z TN07/1506Z TEMPO 1403/1406 RA
             TEMPO 1403/1412 23015G25KT=
TAF     LFSB 132300Z 1400/1424 23008KT 9999 BKN050 BECMG 1402/1404
             26015G30KT PROB40 TEMPO 1404/1408 28030G50KT 3000
             SHRA SCT030TCU BECMG 1410/1412 24012KT=
TAF AAA LSMA 140256Z 1402/1423 03006KT 9999 FEW030 SCT045 BKN060
             TEMPO 1403/1414 RA PROB40 TEMPO 1406/1416 22015G30KT=
TAF     LSMA 131625Z 1317/1423 22010KT 7000 FEW030 SCT040 BKN050
             TEMPO 1403/1414 RA PROB40 TEMPO 1408/1416 22015G30KT=
TAF     LSMD 131625Z 1317/1423 24009KT 9999 FEW015 SCT020 BKN035
             TEMPO 1317/1319 SHRA TEMPO 1403/1414 RA TEMPO
             1407/1417 25015G33KT=
TAF     LSME 131625Z 1317/1423 24010KT 7000 SCT020 BKN030 TEMPO
             1403/1414 RA TEMPO 1408/1415 25015G35KT=
TAF     LSMM 131625Z 1317/1423 30010KT 9999 FEW020 SCT040 BKN050
             TEMPO 1317/1319 SHRA TEMPO 1402/1412 RA=
TAF     LSMP 131625Z 1317/1423 22015KT 9999 FEW025 BKN040 TEMPO
             1323/1409 22020G30KT RA PROB30 TEMPO 1400/1404 4500
             RASN OVC009=
Aktualisiert am Samstag, 14. Dezember 2019, 05:02 Uhr